createdAt,value
2023-07-03T00:00:04.322Z,0.00
2023-07-03T00:01:04.342Z,0.00
2023-07-03T00:02:04.330Z,0.00
2023-07-03T00:03:04.326Z,0.00
2023-07-03T00:04:04.297Z,0.00
2023-07-03T00:05:04.559Z,0.00
2023-07-03T00:06:04.272Z,0.00
2023-07-03T00:07:04.273Z,0.00
2023-07-03T00:08:04.226Z,0.00
2023-07-03T00:09:04.213Z,0.00
2023-07-03T00:10:04.207Z,0.00
2023-07-03T00:11:04.225Z,0.00
2023-07-03T00:12:04.183Z,0.00
2023-07-03T00:13:04.178Z,0.00
2023-07-03T00:14:04.163Z,0.00
2023-07-03T00:15:04.171Z,0.00
2023-07-03T00:16:04.212Z,0.00
2023-07-03T00:17:04.158Z,0.00
2023-07-03T00:18:04.175Z,0.00
2023-07-03T00:19:04.113Z,0.00
2023-07-03T00:20:04.097Z,0.00
2023-07-03T00:21:04.088Z,0.00
2023-07-03T00:22:04.107Z,0.00
2023-07-03T00:23:04.079Z,0.00
2023-07-03T00:24:04.049Z,0.00
2023-07-03T00:25:04.045Z,0.00
2023-07-03T00:26:04.029Z,0.00
2023-07-03T00:27:04.014Z,0.00
2023-07-03T00:28:04.036Z,0.00
2023-07-03T00:29:03.994Z,0.00
2023-07-03T00:30:03.980Z,0.00
2023-07-03T00:31:03.971Z,0.00
2023-07-03T00:32:04.012Z,0.00
2023-07-03T00:33:03.974Z,0.00
2023-07-03T00:34:03.941Z,0.00
2023-07-03T00:35:03.938Z,0.00
2023-07-03T00:36:03.909Z,0.00
2023-07-03T00:37:03.899Z,0.00
2023-07-03T00:38:03.910Z,0.00
2023-07-03T00:39:03.894Z,0.00
2023-07-03T00:40:03.871Z,0.00
2023-07-03T00:41:03.869Z,0.00
2023-07-03T00:42:03.851Z,0.00
2023-07-03T00:43:03.845Z,0.00
2023-07-03T00:44:03.854Z,0.00
2023-07-03T00:45:03.823Z,0.00
2023-07-03T00:46:03.827Z,0.00
2023-07-03T00:47:03.788Z,0.00
2023-07-03T00:48:03.788Z,0.00
2023-07-03T00:49:03.788Z,0.00
2023-07-03T00:50:03.770Z,0.00
2023-07-03T00:51:03.746Z,0.00
2023-07-03T00:52:03.735Z,0.00
2023-07-03T00:53:03.723Z,0.00
2023-07-03T00:54:03.715Z,0.00
2023-07-03T00:55:03.736Z,0.00
2023-07-03T00:56:03.708Z,0.00
2023-07-03T00:57:03.678Z,0.00
2023-07-03T00:58:03.665Z,0.00
2023-07-03T00:59:03.662Z,0.00
2023-07-03T01:00:03.647Z,0.00
2023-07-03T01:01:03.653Z,0.00
2023-07-03T01:02:03.678Z,0.00
2023-07-03T01:03:03.701Z,0.00
2023-07-03T01:04:03.598Z,0.00
2023-07-03T01:05:03.689Z,0.00
2023-07-03T01:06:03.645Z,0.00
2023-07-03T01:07:03.566Z,0.00
2023-07-03T01:08:03.548Z,0.00
2023-07-03T01:09:03.575Z,0.00
2023-07-03T01:10:03.541Z,0.00
2023-07-03T01:11:03.546Z,0.00
2023-07-03T01:12:03.510Z,0.00
2023-07-03T01:13:03.518Z,0.00
2023-07-03T01:14:03.488Z,0.00
2023-07-03T01:15:03.477Z,0.00
2023-07-03T01:16:03.503Z,0.00
2023-07-03T01:17:03.463Z,0.00
2023-07-03T01:18:03.443Z,0.00
2023-07-03T01:19:03.448Z,0.00
2023-07-03T01:20:03.436Z,0.00
2023-07-03T01:21:03.444Z,0.00
2023-07-03T01:22:03.410Z,0.00
2023-07-03T01:23:03.430Z,0.00
2023-07-03T01:24:03.388Z,0.00
2023-07-03T01:25:03.387Z,0.00
2023-07-03T01:26:03.351Z,0.00
2023-07-03T01:27:03.403Z,0.00
2023-07-03T01:28:03.357Z,0.00
2023-07-03T01:29:03.352Z,0.00
2023-07-03T01:30:03.321Z,0.00
2023-07-03T01:31:03.316Z,0.00
2023-07-03T01:32:03.300Z,0.00
2023-07-03T01:33:03.394Z,0.00
2023-07-03T01:34:03.270Z,0.00
2023-07-03T01:35:03.273Z,0.00
2023-07-03T01:36:03.264Z,0.00
2023-07-03T01:37:03.270Z,0.00
2023-07-03T01:38:03.223Z,0.00
2023-07-03T01:39:03.226Z,0.00
2023-07-03T01:40:03.206Z,0.00
2023-07-03T01:41:03.256Z,0.00
2023-07-03T01:42:03.203Z,0.00
2023-07-03T01:43:03.188Z,0.00
2023-07-03T01:44:03.170Z,0.00
2023-07-03T01:45:03.143Z,0.00
2023-07-03T01:46:03.206Z,0.00
2023-07-03T01:47:03.146Z,0.00
2023-07-03T01:48:03.228Z,0.00
2023-07-03T01:49:03.101Z,0.00
2023-07-03T01:50:03.086Z,0.00
2023-07-03T01:51:03.073Z,0.00
2023-07-03T01:52:03.069Z,0.00
2023-07-03T01:53:03.063Z,0.00
2023-07-03T01:54:03.083Z,0.00
2023-07-03T01:55:03.030Z,0.00
2023-07-03T01:56:03.022Z,0.00
2023-07-03T01:57:03.018Z,0.00
2023-07-03T01:58:03.058Z,0.00
2023-07-03T01:59:03.005Z,0.00
2023-07-03T02:00:02.994Z,0.00
2023-07-03T02:01:03.027Z,0.00
2023-07-03T02:02:02.991Z,0.00
2023-07-03T02:03:02.991Z,0.00
2023-07-03T02:04:02.942Z,0.00
2023-07-03T02:05:02.997Z,0.00
2023-07-03T02:06:02.914Z,0.00
2023-07-03T02:07:02.923Z,0.00
2023-07-03T02:08:02.885Z,0.00
2023-07-03T02:09:02.887Z,0.00
2023-07-03T02:10:02.893Z,0.00
2023-07-03T02:11:02.879Z,0.00
2023-07-03T02:12:02.843Z,0.00
2023-07-03T02:13:02.830Z,0.00
2023-07-03T02:14:02.815Z,0.00
2023-07-03T02:15:02.816Z,0.00
2023-07-03T02:16:02.821Z,0.00
2023-07-03T02:17:02.880Z,0.00
2023-07-03T02:18:02.838Z,0.00
2023-07-03T02:19:02.763Z,0.00
2023-07-03T02:20:02.769Z,0.00
2023-07-03T02:21:02.758Z,0.00
2023-07-03T02:22:02.762Z,0.00
2023-07-03T02:23:02.719Z,0.00
2023-07-03T02:24:02.704Z,0.00
2023-07-03T02:25:02.704Z,0.00
2023-07-03T02:26:02.693Z,0.00
2023-07-03T02:27:02.693Z,0.00
2023-07-03T02:28:02.669Z,0.00
2023-07-03T02:29:02.643Z,0.00
2023-07-03T02:30:02.658Z,0.00
2023-07-03T02:31:02.667Z,0.00
2023-07-03T02:32:02.639Z,0.00
2023-07-03T02:33:02.647Z,0.00
2023-07-03T02:34:02.591Z,0.00
2023-07-03T02:35:02.575Z,0.00
2023-07-03T02:36:02.575Z,4.00
2023-07-03T02:37:02.567Z,4.00
2023-07-03T02:38:02.578Z,4.00
2023-07-03T02:39:02.552Z,0.00
2023-07-03T02:40:02.537Z,4.00
2023-07-03T02:41:02.527Z,4.00
2023-07-03T02:42:02.502Z,4.00
2023-07-03T02:43:02.489Z,4.00
2023-07-03T02:44:02.538Z,4.00
2023-07-03T02:45:02.481Z,4.00
2023-07-03T02:46:02.460Z,4.00
2023-07-03T02:47:02.488Z,4.00
2023-07-03T02:48:02.517Z,8.00
2023-07-03T02:49:02.449Z,8.00
2023-07-03T02:50:02.449Z,8.00
2023-07-03T02:51:02.398Z,8.00
2023-07-03T02:52:02.420Z,8.00
2023-07-03T02:53:02.417Z,8.00
2023-07-03T02:54:02.367Z,12.00
2023-07-03T02:55:02.379Z,16.00
2023-07-03T02:56:02.352Z,20.00
2023-07-03T02:57:02.346Z,24.00
2023-07-03T02:58:02.318Z,28.00
2023-07-03T02:59:02.335Z,28.00
2023-07-03T03:00:02.312Z,32.00
2023-07-03T03:01:02.395Z,32.00
2023-07-03T03:02:02.288Z,36.00
2023-07-03T03:03:02.450Z,40.00
2023-07-03T03:04:02.370Z,40.00
2023-07-03T03:05:02.366Z,44.00
2023-07-03T03:06:02.273Z,52.00
2023-07-03T03:07:02.254Z,56.00
2023-07-03T03:08:02.235Z,64.00
2023-07-03T03:09:02.216Z,68.00
2023-07-03T03:10:02.199Z,76.00
2023-07-03T03:11:02.188Z,84.00
2023-07-03T03:12:02.189Z,92.00
2023-07-03T03:13:02.171Z,96.00
2023-07-03T03:14:02.152Z,100.00
2023-07-03T03:15:02.188Z,108.00
2023-07-03T03:16:02.148Z,116.00
2023-07-03T03:17:02.209Z,124.00
2023-07-03T03:18:02.123Z,144.00
2023-07-03T03:19:02.085Z,164.00
2023-07-03T03:20:02.077Z,192.00
2023-07-03T03:21:02.109Z,212.00
2023-07-03T03:22:02.094Z,228.00
2023-07-03T03:23:02.049Z,244.00
2023-07-03T03:24:02.033Z,256.00
2023-07-03T03:25:02.062Z,284.00
2023-07-03T03:26:02.028Z,304.00
2023-07-03T03:27:02.003Z,316.00
2023-07-03T03:28:01.992Z,324.00
2023-07-03T03:29:01.992Z,340.00
2023-07-03T03:30:01.971Z,360.00
2023-07-03T03:31:02.061Z,384.00
2023-07-03T03:32:01.955Z,400.00
2023-07-03T03:33:01.960Z,416.00
2023-07-03T03:34:01.952Z,440.00
2023-07-03T03:35:01.920Z,456.00
2023-07-03T03:36:01.922Z,476.00
2023-07-03T03:37:01.909Z,500.00
2023-07-03T03:38:01.873Z,520.00
2023-07-03T03:39:01.867Z,548.00
2023-07-03T03:40:01.906Z,576.00
2023-07-03T03:41:01.867Z,600.00
2023-07-03T03:42:01.841Z,624.00
2023-07-03T03:43:01.835Z,644.00
2023-07-03T03:44:01.816Z,664.00
2023-07-03T03:45:01.804Z,688.00
2023-07-03T03:46:01.823Z,696.00
2023-07-03T03:47:01.792Z,712.00
2023-07-03T03:48:01.811Z,744.00
2023-07-03T03:49:01.846Z,776.00
2023-07-03T03:50:01.870Z,784.00
2023-07-03T03:51:01.808Z,792.00
2023-07-03T03:52:01.768Z,820.00
2023-07-03T03:53:01.715Z,844.00
2023-07-03T03:54:01.707Z,860.00
2023-07-03T03:55:01.687Z,868.00
2023-07-03T03:56:01.676Z,892.00
2023-07-03T03:57:01.667Z,932.00
2023-07-03T03:58:01.682Z,972.00
2023-07-03T03:59:01.645Z,1020.00
2023-07-03T04:00:01.659Z,1092.00
2023-07-03T04:01:01.614Z,1088.00
2023-07-03T04:02:01.670Z,1120.00
2023-07-03T04:03:01.631Z,1140.00
2023-07-03T04:04:01.640Z,1172.00
2023-07-03T04:05:01.717Z,1192.00
2023-07-03T04:06:01.572Z,1216.00
2023-07-03T04:07:01.554Z,1240.00
2023-07-03T04:08:01.545Z,1272.00
2023-07-03T04:09:01.528Z,1320.00
2023-07-03T04:10:01.547Z,1352.00
2023-07-03T04:11:01.562Z,1364.00
2023-07-03T04:12:01.494Z,1372.00
2023-07-03T04:13:01.496Z,1360.00
2023-07-03T04:14:01.559Z,1356.00
2023-07-03T04:15:01.598Z,1384.00
2023-07-03T04:16:02.295Z,1432.00
2023-07-03T04:17:01.527Z,1492.00
2023-07-03T04:18:01.549Z,1552.00
2023-07-03T04:19:01.462Z,1628.00
2023-07-03T04:20:01.432Z,1704.00
2023-07-03T04:21:01.471Z,1748.00
2023-07-03T04:22:01.446Z,1768.00
2023-07-03T04:23:01.458Z,1800.00
2023-07-03T04:24:01.647Z,1840.00
2023-07-03T04:25:01.499Z,1824.00
2023-07-03T04:26:01.404Z,1840.00
2023-07-03T04:27:01.436Z,1872.00
2023-07-03T04:28:01.408Z,1872.00
2023-07-03T04:29:01.532Z,1936.00
2023-07-03T04:30:01.451Z,1988.00
2023-07-03T04:31:01.351Z,2036.00
2023-07-03T04:32:01.421Z,2040.00
2023-07-03T04:33:01.412Z,1992.00
2023-07-03T04:34:01.310Z,1876.00
2023-07-03T04:35:01.247Z,1772.00
2023-07-03T04:36:01.467Z,1712.00
2023-07-03T04:37:01.291Z,1668.00
2023-07-03T04:38:01.267Z,1668.00
2023-07-03T04:39:01.259Z,1688.00
2023-07-03T04:40:01.254Z,1736.00
2023-07-03T04:41:01.209Z,1828.00
2023-07-03T04:42:01.405Z,1968.00
2023-07-03T04:43:01.270Z,2160.00
2023-07-03T04:44:01.225Z,2380.00
2023-07-03T04:45:01.288Z,2520.00
2023-07-03T04:46:01.405Z,2548.00
2023-07-03T04:47:01.674Z,2616.00
2023-07-03T04:48:01.129Z,2988.00
2023-07-03T04:49:01.656Z,3068.00
2023-07-03T04:50:01.181Z,2844.00
2023-07-03T04:51:01.156Z,2856.00
2023-07-03T04:52:01.184Z,2940.00
2023-07-03T04:53:01.049Z,3036.00
2023-07-03T04:54:01.065Z,3004.00
2023-07-03T04:55:01.172Z,2844.00
2023-07-03T04:56:01.037Z,2732.00
2023-07-03T04:57:01.046Z,2552.00
2023-07-03T04:58:01.122Z,2408.00
2023-07-03T04:59:00.974Z,2252.00
2023-07-03T05:00:01.096Z,2088.00
2023-07-03T05:01:01.025Z,1860.00
2023-07-03T05:02:01.116Z,1732.00
2023-07-03T05:03:01.069Z,1632.00
2023-07-03T05:04:01.055Z,1504.00
2023-07-03T05:05:01.131Z,1496.00
2023-07-03T05:06:01.073Z,1604.00
2023-07-03T05:07:00.909Z,1784.00
2023-07-03T05:08:00.930Z,1652.00
2023-07-03T05:09:00.921Z,1720.00
2023-07-03T05:10:00.889Z,2096.00
2023-07-03T05:11:00.886Z,2440.00
2023-07-03T05:12:00.873Z,3084.00
2023-07-03T05:13:00.842Z,3416.00
2023-07-03T05:14:00.959Z,3456.00
2023-07-03T05:15:00.804Z,3340.00
2023-07-03T05:16:00.901Z,3680.00
2023-07-03T05:17:00.776Z,3980.00
2023-07-03T05:18:00.958Z,4036.00
2023-07-03T05:19:00.907Z,4092.00
2023-07-03T05:20:00.938Z,4200.00
2023-07-03T05:21:00.786Z,4216.00
2023-07-03T05:22:00.745Z,4372.00
2023-07-03T05:23:00.831Z,4488.00
2023-07-03T05:24:00.767Z,4348.00
2023-07-03T05:25:00.715Z,4300.00
2023-07-03T05:26:00.682Z,4560.00
2023-07-03T05:27:00.738Z,4472.00
2023-07-03T05:28:00.672Z,4368.00
2023-07-03T05:29:00.683Z,4588.00
2023-07-03T05:30:00.765Z,4724.00
2023-07-03T05:31:00.656Z,4716.00
2023-07-03T05:32:00.689Z,4696.00
2023-07-03T05:33:00.653Z,4676.00
2023-07-03T05:34:00.590Z,4728.00
2023-07-03T05:35:00.615Z,4864.00
2023-07-03T05:36:00.628Z,4916.00
2023-07-03T05:37:00.614Z,4828.00
2023-07-03T05:38:00.604Z,4852.00
2023-07-03T05:39:00.553Z,4932.00
2023-07-03T05:40:00.528Z,5072.00
2023-07-03T05:41:00.514Z,4928.00
2023-07-03T05:42:00.529Z,4932.00
2023-07-03T05:43:00.497Z,5132.00
2023-07-03T05:44:00.469Z,4724.00
2023-07-03T05:45:00.465Z,4008.00
2023-07-03T05:46:00.472Z,3428.00
2023-07-03T05:47:00.480Z,2948.00
2023-07-03T05:48:00.441Z,2796.00
2023-07-03T05:49:00.423Z,2664.00
2023-07-03T05:50:00.437Z,2488.00
2023-07-03T05:51:00.415Z,2128.00
2023-07-03T05:52:00.417Z,1396.00
2023-07-03T05:53:00.417Z,1344.00
2023-07-03T05:54:00.367Z,1780.00
2023-07-03T05:55:00.363Z,2440.00
2023-07-03T05:56:00.462Z,2964.00
2023-07-03T05:57:00.335Z,3536.00
2023-07-03T05:58:00.331Z,3552.00
2023-07-03T05:59:00.327Z,4360.00
2023-07-03T06:00:00.318Z,4716.00
2023-07-03T06:01:00.452Z,5368.00
2023-07-03T06:02:00.274Z,5740.00
2023-07-03T06:03:00.616Z,5720.00
2023-07-03T06:04:00.321Z,5376.00
2023-07-03T06:05:00.394Z,5200.00
2023-07-03T06:06:00.250Z,5288.00
2023-07-03T06:07:00.213Z,5204.00
2023-07-03T06:08:00.221Z,4932.00
2023-07-03T06:09:00.218Z,4856.00
2023-07-03T06:10:00.222Z,5000.00
2023-07-03T06:11:00.212Z,4764.00
2023-07-03T06:12:00.201Z,4580.00
2023-07-03T06:13:00.175Z,4428.00
2023-07-03T06:14:00.141Z,4240.00
2023-07-03T06:15:00.185Z,4072.00
2023-07-03T06:16:00.116Z,4184.00
2023-07-03T06:17:00.365Z,4204.00
2023-07-03T06:18:00.152Z,4356.00
2023-07-03T06:19:00.138Z,4392.00
2023-07-03T06:20:00.119Z,4128.00
2023-07-03T06:21:00.093Z,4040.00
2023-07-03T06:22:00.104Z,4092.00
2023-07-03T06:23:00.115Z,3916.00
2023-07-03T06:24:01.713Z,4004.00
2023-07-03T06:25:00.022Z,4100.00
2023-07-03T06:26:00.062Z,5008.00
2023-07-03T06:27:00.040Z,5620.00
2023-07-03T06:28:00.087Z,4432.00
2023-07-03T06:29:00.086Z,4204.00
2023-07-03T06:29:59.975Z,4204.00
2023-07-03T06:31:00.061Z,3804.00
2023-07-03T06:31:59.960Z,3764.00
2023-07-03T06:33:00.022Z,4016.00
2023-07-03T06:33:59.907Z,4312.00
2023-07-03T06:35:00.683Z,4988.00
2023-07-03T06:35:59.928Z,6528.00
2023-07-03T06:36:59.905Z,6156.00
2023-07-03T06:37:59.876Z,6156.00
2023-07-03T06:38:59.853Z,7632.00
2023-07-03T06:39:59.847Z,7312.00
2023-07-03T06:40:59.861Z,6588.00
2023-07-03T06:41:59.840Z,5548.00
2023-07-03T06:42:59.842Z,5048.00
2023-07-03T06:43:59.804Z,5872.00
2023-07-03T06:44:59.786Z,6284.00
2023-07-03T06:45:59.802Z,8732.00
2023-07-03T06:46:59.840Z,7896.00
2023-07-03T06:47:59.816Z,5980.00
2023-07-03T06:48:59.746Z,5332.00
2023-07-03T06:49:59.744Z,4624.00
2023-07-03T06:50:59.733Z,4652.00
2023-07-03T06:51:59.711Z,5252.00
2023-07-03T06:52:59.702Z,6784.00
2023-07-03T06:53:59.723Z,9876.00
2023-07-03T06:54:59.677Z,10928.00
2023-07-03T06:55:59.668Z,8496.00
2023-07-03T06:56:59.650Z,7836.00
2023-07-03T06:57:59.664Z,7460.00
2023-07-03T06:58:59.664Z,10008.00
2023-07-03T06:59:59.642Z,9660.00
2023-07-03T07:00:59.610Z,10184.00
2023-07-03T07:01:59.680Z,9380.00
2023-07-03T07:02:59.667Z,9500.00
2023-07-03T07:04:00.607Z,11144.00
2023-07-03T07:05:02.518Z,10420.00
2023-07-03T07:05:59.848Z,9224.00
2023-07-03T07:06:59.545Z,10416.00
2023-07-03T07:07:59.529Z,10096.00
2023-07-03T07:08:59.545Z,10428.00
2023-07-03T07:09:59.522Z,9388.00
2023-07-03T07:10:59.514Z,9460.00
2023-07-03T07:11:59.500Z,9792.00
2023-07-03T07:12:59.478Z,9208.00
2023-07-03T07:13:59.504Z,9408.00
2023-07-03T07:14:59.455Z,10060.00
2023-07-03T07:15:59.446Z,10020.00
2023-07-03T07:16:59.500Z,10456.00
2023-07-03T07:17:59.507Z,10468.00
2023-07-03T07:18:59.414Z,10680.00
2023-07-03T07:19:59.419Z,10320.00
2023-07-03T07:20:59.432Z,10968.00
2023-07-03T07:21:59.384Z,12840.00
2023-07-03T07:22:59.373Z,14128.00
2023-07-03T07:23:59.357Z,13056.00
2023-07-03T07:24:59.575Z,13396.00
2023-07-03T07:25:59.332Z,14224.00
2023-07-03T07:26:59.345Z,14600.00
2023-07-03T07:27:59.320Z,15192.00
2023-07-03T07:28:59.303Z,14496.00
2023-07-03T07:29:59.297Z,13616.00
2023-07-03T07:30:59.297Z,12804.00
2023-07-03T07:31:59.269Z,12056.00
2023-07-03T07:32:59.334Z,11736.00
2023-07-03T07:33:59.256Z,12388.00
2023-07-03T07:34:59.233Z,12356.00
2023-07-03T07:35:59.223Z,12112.00
2023-07-03T07:36:59.266Z,11352.00
2023-07-03T07:37:59.201Z,10776.00
2023-07-03T07:38:59.195Z,9952.00
2023-07-03T07:39:59.201Z,9512.00
2023-07-03T07:40:59.174Z,10848.00
2023-07-03T07:41:59.158Z,11948.00
2023-07-03T07:42:59.177Z,11140.00
2023-07-03T07:43:59.157Z,10448.00
2023-07-03T07:44:59.134Z,10912.00
2023-07-03T07:45:59.150Z,10864.00
2023-07-03T07:46:59.121Z,11200.00
2023-07-03T07:47:59.113Z,12068.00
2023-07-03T07:48:59.159Z,13708.00
2023-07-03T07:49:59.071Z,14636.00
2023-07-03T07:50:59.065Z,14804.00
2023-07-03T07:51:59.047Z,14828.00
2023-07-03T07:52:59.086Z,14940.00
2023-07-03T07:53:59.051Z,14932.00
2023-07-03T07:54:59.027Z,14740.00
2023-07-03T07:55:59.041Z,14616.00
2023-07-03T07:56:59.009Z,14164.00
2023-07-03T07:57:58.989Z,13768.00
2023-07-03T07:58:58.974Z,13460.00
2023-07-03T07:59:58.963Z,14188.00
2023-07-03T08:00:59.155Z,14216.00
2023-07-03T08:01:59.015Z,12288.00
2023-07-03T08:02:58.972Z,11244.00
2023-07-03T08:03:58.976Z,10956.00
2023-07-03T08:04:59.018Z,11264.00
2023-07-03T08:05:58.903Z,13092.00
2023-07-03T08:06:58.875Z,13364.00
2023-07-03T08:07:58.884Z,13924.00
2023-07-03T08:08:58.891Z,13828.00
2023-07-03T08:09:58.867Z,13048.00
2023-07-03T08:10:58.833Z,12352.00
2023-07-03T08:11:58.844Z,12160.00
2023-07-03T08:12:58.828Z,13492.00
2023-07-03T08:13:58.837Z,13888.00
2023-07-03T08:14:58.799Z,13480.00
2023-07-03T08:15:58.797Z,12360.00
2023-07-03T08:16:58.796Z,11756.00
2023-07-03T08:17:58.789Z,11904.00
2023-07-03T08:18:58.771Z,11240.00
2023-07-03T08:19:58.762Z,11472.00
2023-07-03T08:20:58.732Z,10908.00
2023-07-03T08:21:58.716Z,10612.00
2023-07-03T08:22:58.698Z,10620.00
2023-07-03T08:23:58.702Z,11824.00
2023-07-03T08:24:58.714Z,12164.00
2023-07-03T08:25:58.671Z,11964.00
2023-07-03T08:26:58.661Z,11936.00
2023-07-03T08:27:58.650Z,12684.00
2023-07-03T08:28:58.641Z,13736.00
2023-07-03T08:29:58.625Z,14700.00
2023-07-03T08:30:58.673Z,14292.00
2023-07-03T08:31:58.655Z,13404.00
2023-07-03T08:32:58.658Z,12528.00
2023-07-03T08:33:58.619Z,12580.00
2023-07-03T08:37:58.568Z,15900.00
2023-07-03T08:38:58.536Z,16168.00
2023-07-03T08:39:58.515Z,17280.00
2023-07-03T08:40:58.502Z,18304.00
2023-07-03T08:41:58.525Z,17696.00
2023-07-03T08:42:58.488Z,16960.00
2023-07-03T08:43:58.488Z,15776.00
2023-07-03T08:44:59.350Z,17216.00
2023-07-03T08:45:58.464Z,18080.00
2023-07-03T08:47:10.720Z,17792.00
2023-07-03T08:47:58.461Z,16000.00
2023-07-03T08:48:58.410Z,15216.00
2023-07-03T08:49:58.447Z,15740.00
2023-07-03T08:50:58.512Z,17088.00
2023-07-03T08:51:58.379Z,17536.00
2023-07-03T08:52:58.401Z,17280.00
2023-07-03T08:53:58.361Z,17088.00
2023-07-03T08:54:58.340Z,17824.00
2023-07-03T08:55:58.332Z,18784.00
2023-07-03T08:56:58.320Z,18688.00
2023-07-03T08:57:58.328Z,17216.00
2023-07-03T08:58:58.324Z,17440.00
2023-07-03T08:59:58.294Z,16928.00
2023-07-03T09:00:59.073Z,17088.00
2023-07-03T09:01:58.283Z,17088.00
2023-07-03T09:02:58.388Z,16960.00
2023-07-03T09:03:58.467Z,17152.00
2023-07-03T09:04:58.274Z,16928.00
2023-07-03T09:05:58.227Z,16384.00
2023-07-03T09:06:58.227Z,16004.00
2023-07-03T09:07:58.204Z,16388.00
2023-07-03T09:08:58.188Z,17792.00
2023-07-03T09:09:58.201Z,17952.00
2023-07-03T09:10:58.165Z,17312.00
2023-07-03T09:11:58.153Z,17408.00
2023-07-03T09:12:58.156Z,17440.00
2023-07-03T09:13:58.133Z,17440.00
2023-07-03T09:14:58.124Z,16180.00
2023-07-03T09:15:58.134Z,16452.00
2023-07-03T09:16:58.118Z,19008.00
2023-07-03T09:17:58.114Z,18688.00
2023-07-03T09:18:58.075Z,18432.00
2023-07-03T09:19:58.109Z,19040.00
2023-07-03T09:20:58.859Z,19168.00
2023-07-03T09:21:58.074Z,18560.00
2023-07-03T09:22:58.043Z,19680.00
2023-07-03T09:23:58.027Z,19872.00
2023-07-03T09:24:58.009Z,20000.00
2023-07-03T09:26:02.322Z,20288.00
2023-07-03T09:26:58.563Z,19616.00
2023-07-03T09:27:58.029Z,15972.00
2023-07-03T09:28:57.960Z,13276.00
2023-07-03T09:29:57.960Z,13580.00
2023-07-03T09:30:58.214Z,16512.00
2023-07-03T09:31:58.534Z,18272.00
2023-07-03T09:32:57.958Z,16172.00
2023-07-03T09:33:57.909Z,13344.00
2023-07-03T09:34:57.896Z,11996.00
2023-07-03T09:35:58.896Z,12036.00
2023-07-03T09:36:58.576Z,10524.00
2023-07-03T09:37:57.882Z,8752.00
2023-07-03T09:38:57.902Z,7864.00
2023-07-03T09:39:57.934Z,8240.00
2023-07-03T09:40:59.887Z,9856.00
2023-07-03T09:41:58.063Z,8784.00
2023-07-03T09:42:57.845Z,6880.00
2023-07-03T09:43:57.822Z,7488.00
2023-07-03T09:44:57.800Z,6908.00
2023-07-03T09:45:57.782Z,8156.00
2023-07-03T09:46:57.850Z,9780.00
2023-07-03T09:47:57.842Z,10208.00
2023-07-03T09:48:58.143Z,10556.00
2023-07-03T09:49:57.835Z,10732.00
2023-07-03T09:51:07.371Z,11464.00
2023-07-03T09:51:57.749Z,11988.00
2023-07-03T09:53:07.532Z,12696.00
2023-07-03T09:53:57.696Z,14116.00
2023-07-03T09:54:57.680Z,15496.00
2023-07-03T09:55:57.681Z,15760.00
2023-07-03T09:56:57.719Z,17728.00
2023-07-03T09:57:57.653Z,18176.00
2023-07-03T09:58:57.656Z,18848.00
2023-07-03T09:59:57.635Z,19488.00
2023-07-03T10:00:58.095Z,20736.00
2023-07-03T10:03:58.085Z,22112.00
2023-07-03T10:06:57.737Z,21632.00
2023-07-03T10:07:57.815Z,22400.00
2023-07-03T10:11:57.577Z,13892.00
2023-07-03T10:12:57.577Z,12572.00
2023-07-03T10:13:57.471Z,12052.00
2023-07-03T10:14:57.465Z,13316.00
2023-07-03T10:15:57.443Z,10580.00
2023-07-03T10:16:57.479Z,9276.00
2023-07-03T10:17:57.458Z,12048.00
2023-07-03T10:18:57.421Z,13488.00
2023-07-03T10:19:57.400Z,14880.00
2023-07-03T10:20:57.393Z,13572.00
2023-07-03T10:21:57.374Z,13400.00
2023-07-03T10:22:57.394Z,13664.00
2023-07-03T10:23:57.350Z,13304.00
2023-07-03T10:24:57.352Z,11956.00
2023-07-03T10:25:57.331Z,11872.00
2023-07-03T10:26:57.338Z,10676.00
2023-07-03T10:27:57.342Z,9944.00
2023-07-03T10:28:57.345Z,10756.00
2023-07-03T10:29:57.286Z,11276.00
2023-07-03T10:30:57.287Z,10388.00
2023-07-03T10:31:57.345Z,11320.00
2023-07-03T10:32:57.273Z,11960.00
2023-07-03T10:33:57.263Z,12040.00
2023-07-03T10:34:57.248Z,11044.00
2023-07-03T10:35:57.232Z,10344.00
2023-07-03T10:36:57.216Z,11104.00
2023-07-03T10:37:57.199Z,11200.00
2023-07-03T10:38:57.219Z,10468.00
2023-07-03T10:39:57.179Z,9664.00
2023-07-03T10:40:57.175Z,9648.00
2023-07-03T10:41:57.160Z,11356.00
2023-07-03T10:42:57.143Z,13640.00
2023-07-03T10:43:57.156Z,15664.00
2023-07-03T10:44:57.122Z,18400.00
2023-07-03T10:45:57.123Z,14760.00
2023-07-03T10:46:57.100Z,12932.00
2023-07-03T10:47:57.215Z,14464.00
2023-07-03T10:48:57.113Z,16672.00
2023-07-03T10:49:57.066Z,15820.00
2023-07-03T10:50:57.082Z,18048.00
2023-07-03T10:51:57.090Z,20480.00
2023-07-03T10:52:57.036Z,20224.00
2023-07-03T10:53:57.024Z,22208.00
2023-07-03T10:54:57.021Z,21312.00
2023-07-03T10:55:57.005Z,21120.00
2023-07-03T10:56:57.010Z,21888.00
2023-07-03T10:57:56.978Z,21344.00
2023-07-03T10:58:56.981Z,23328.00
2023-07-03T10:59:56.971Z,24544.00
2023-07-03T11:00:56.981Z,27200.00
2023-07-03T11:01:56.953Z,26912.00
2023-07-03T11:02:56.959Z,27744.00
2023-07-03T11:04:15.931Z,26144.00
2023-07-03T11:04:56.928Z,24288.00
2023-07-03T11:05:56.908Z,23648.00
2023-07-03T11:07:02.934Z,24032.00
2023-07-03T11:07:56.877Z,25952.00
2023-07-03T11:08:56.874Z,25344.00
2023-07-03T11:09:56.854Z,27264.00
2023-07-03T11:10:56.837Z,27520.00
2023-07-03T11:11:56.851Z,24928.00
2023-07-03T11:12:56.820Z,22720.00
2023-07-03T11:13:56.910Z,20864.00
2023-07-03T11:14:56.791Z,20672.00
2023-07-03T11:15:56.812Z,16104.00
2023-07-03T11:16:56.797Z,15332.00
2023-07-03T11:19:56.745Z,12784.00
2023-07-03T11:22:56.736Z,12272.00
2023-07-03T11:23:57.605Z,13264.00
2023-07-03T11:24:56.695Z,12240.00
2023-07-03T11:27:56.647Z,9968.00
2023-07-03T11:28:56.661Z,9792.00
2023-07-03T11:29:56.646Z,8988.00
2023-07-03T11:30:56.663Z,8844.00
2023-07-03T11:31:56.645Z,10040.00
2023-07-03T11:32:56.614Z,11516.00
2023-07-03T11:35:56.594Z,12560.00
2023-07-03T11:37:03.223Z,12380.00
2023-07-03T11:39:56.562Z,15868.00
2023-07-03T11:40:56.713Z,17120.00
2023-07-03T11:43:56.478Z,27328.00
2023-07-03T11:44:56.490Z,90528.00
2023-07-03T11:45:56.470Z,96320.00
2023-07-03T11:46:56.555Z,97024.00
2023-07-03T11:47:56.473Z,96896.00
2023-07-03T11:48:56.425Z,99520.00
2023-07-03T11:49:56.406Z,61984.00
2023-07-03T11:50:56.410Z,86240.00
2023-07-03T11:51:56.408Z,93696.00
2023-07-03T11:52:56.374Z,74976.00
2023-07-03T11:53:56.364Z,59744.00
2023-07-03T11:54:56.354Z,83808.00
2023-07-03T11:55:56.343Z,71872.00
2023-07-03T11:56:56.374Z,85696.00
2023-07-03T11:58:14.285Z,73728.00
2023-07-03T11:58:58.671Z,85632.00
2023-07-03T11:59:56.301Z,87904.00
2023-07-03T12:00:56.383Z,86560.00
2023-07-03T12:01:56.306Z,88448.00
2023-07-03T12:02:56.360Z,81120.00
2023-07-03T12:03:56.421Z,84704.00
2023-07-03T12:04:56.244Z,84832.00
2023-07-03T12:05:56.245Z,83968.00
2023-07-03T12:06:56.260Z,89184.00
2023-07-03T12:07:56.244Z,64832.00
2023-07-03T12:08:56.215Z,16512.00
2023-07-03T12:09:56.195Z,9668.00
2023-07-03T12:10:57.098Z,8692.00
2023-07-03T12:11:56.169Z,7796.00
2023-07-03T12:12:56.217Z,6020.00
2023-07-03T12:13:56.387Z,4240.00
2023-07-03T12:14:56.192Z,3556.00
2023-07-03T12:15:56.140Z,3400.00
2023-07-03T12:16:56.165Z,3840.00
2023-07-03T12:17:56.163Z,5088.00
2023-07-03T12:18:56.100Z,6476.00
2023-07-03T12:19:56.086Z,7048.00
2023-07-03T12:20:56.137Z,12424.00
2023-07-03T12:21:56.078Z,52576.00
2023-07-03T12:22:56.083Z,91840.00
2023-07-03T12:23:56.044Z,72896.00
2023-07-03T12:24:56.038Z,17088.00
2023-07-03T12:25:56.019Z,10052.00
2023-07-03T12:26:56.015Z,6192.00
2023-07-03T12:27:56.021Z,4372.00
2023-07-03T12:28:55.994Z,3424.00
2023-07-03T12:29:55.989Z,4284.00
2023-07-03T12:30:56.001Z,5912.00
2023-07-03T12:31:55.949Z,7552.00
2023-07-03T12:32:55.974Z,9512.00
2023-07-03T12:33:55.935Z,13440.00
2023-07-03T12:34:55.935Z,16072.00
2023-07-03T12:35:55.912Z,19520.00
2023-07-03T12:37:02.092Z,22848.00